Time;durP1;ratioP1;P1;durP2;ratioP2;P2;SDS_P1;SDS_P2;PMS_P1;PMS_P2;Temp;Humidity;BMP_temperature;BMP_pressure;BME280_temperature;BME280_humidity;BME280_pressure;Samples;Min_cycle;Max_cycle;Signal;HPM_P1;HPM_P2
2022/04/02 00:02:04;;;;;;;;;9.67;6.67;;;;;7.34;68.52;100703.91;6163464;23;45964;-84
2022/04/02 00:04:30;;;;;;;;;6.67;6.67;;;;;7.16;66.73;100693.75;6161463;23;45712;-84
2022/04/02 00:06:56;;;;;;;;;7.33;6.00;;;;;7.20;66.74;100698.25;6163296;23;46054;-83
2022/04/02 00:09:23;;;;;;;;;9.33;5.33;;;;;7.36;66.73;100703.09;6162112;23;45374;-82
2022/04/02 00:11:48;;;;;;;;;8.00;8.00;;;;;7.17;63.55;100703.44;6138085;23;46982;-82
2022/04/02 00:14:14;;;;;;;;;9.00;9.00;;;;;7.13;61.47;100709.50;6162169;23;45676;-82
2022/04/02 00:16:40;;;;;;;;;8.00;6.00;;;;;7.19;59.30;100707.94;6165192;23;45719;-82
2022/04/02 00:19:06;;;;;;;;;8.00;8.00;;;;;7.15;56.21;100715.72;6165151;23;45389;-82
2022/04/02 00:24:54;;;;;;;;;4.00;4.00;;;;;7.16;55.99;100704.31;6168217;23;45376;-84
2022/04/02 00:27:19;;;;;;;;;9.67;4.33;;;;;7.20;55.11;100709.72;6141273;23;45406;-84
2022/04/02 00:29:45;;;;;;;;;8.00;5.67;;;;;7.17;54.93;100716.66;6164633;23;44887;-82
2022/04/02 00:32:10;;;;;;;;;5.00;5.00;;;;;7.05;53.16;100700.47;6164531;23;45365;-83
2022/04/02 00:34:37;;;;;;;;;5.67;5.00;;;;;7.31;55.12;100696.81;6139467;23;45312;-83
2022/04/02 00:37:02;;;;;;;;;9.67;5.00;;;;;7.15;54.52;100699.88;6163851;23;45340;-83
2022/04/02 00:39:28;;;;;;;;;3.33;3.33;;;;;7.12;54.40;100699.78;6141197;23;45291;-83
2022/04/02 00:42:00;;;;;;;;;5.33;5.33;;;;;7.44;53.82;100702.41;6140189;23;46647;-82
2022/04/02 00:44:26;;;;;;;;;2.00;1.67;;;;;7.10;51.99;100706.78;6165751;23;45404;-85
2022/04/02 00:46:52;;;;;;;;;5.33;4.00;;;;;6.96;52.25;100704.66;6164684;23;45278;-83
2022/04/02 00:49:18;;;;;;;;;5.67;4.33;;;;;6.90;51.75;100699.19;6141038;23;45790;-82
2022/04/02 00:51:45;;;;;;;;;5.00;4.00;;;;;7.05;54.48;100704.03;6167071;23;45467;-85
2022/04/02 00:54:15;;;;;;;;;4.33;4.33;;;;;7.19;53.99;100693.81;6166885;23;45356;-83
2022/04/02 00:56:41;;;;;;;;;5.00;5.00;;;;;6.98;53.71;100695.00;6140379;23;45295;-82
2022/04/02 00:59:09;;;;;;;;;4.67;4.00;;;;;7.01;52.53;100687.19;6167033;23;45346;-83
2022/04/02 01:01:35;;;;;;;;;9.00;8.00;;;;;6.97;53.64;100692.34;6164422;23;47179;-84
2022/04/02 01:04:02;;;;;;;;;4.67;4.67;;;;;7.00;52.86;100695.06;6165957;23;45756;-83
2022/04/02 01:06:29;;;;;;;;;4.00;4.00;;;;;7.03;52.84;100707.47;6163564;23;45552;-83
2022/04/02 01:08:55;;;;;;;;;3.33;3.33;;;;;6.77;50.54;100712.94;6138466;23;45433;-83
2022/04/02 01:11:21;;;;;;;;;5.00;5.00;;;;;6.85;53.05;100703.47;6139724;23;46527;-83
2022/04/02 01:13:46;;;;;;;;;4.00;4.00;;;;;6.75;52.08;100682.91;6141478;23;45312;-84
2022/04/02 01:16:12;;;;;;;;;5.00;5.00;;;;;6.85;53.01;100695.53;6141883;23;45351;-81
2022/04/02 01:18:37;;;;;;;;;5.00;5.00;;;;;6.82;53.07;100701.63;6167008;23;45801;-83
2022/04/02 01:21:03;;;;;;;;;4.00;4.00;;;;;6.72;50.84;100691.63;6166294;23;45301;-83
2022/04/02 01:23:29;;;;;;;;;7.33;5.00;;;;;6.73;52.02;100695.19;6140174;23;45402;-83
2022/04/02 01:25:59;;;;;;;;;6.00;3.33;;;;;6.87;52.14;100688.56;6166943;23;45307;-83
2022/04/02 01:28:33;;;;;;;;;4.00;4.00;;;;;6.67;52.64;100692.38;6168273;23;45170;-82
2022/04/02 01:31:12;;;;;;;;;5.67;5.67;;;;;6.64;52.71;100706.38;6161907;23;45897;-84
2022/04/02 01:33:45;;;;;;;;;1.67;1.67;;;;;6.87;53.13;100693.84;6166947;23;45703;-82
2022/04/02 01:36:12;;;;;;;;;4.33;4.33;;;;;6.78;52.95;100698.84;6139604;23;45361;-82
2022/04/02 01:38:37;;;;;;;;;5.67;5.67;;;;;6.59;52.89;100716.81;6168380;23;45260;-82
2022/04/02 01:41:03;;;;;;;;;3.33;3.33;;;;;6.60;53.41;100709.78;6140386;23;46841;-82
2022/04/02 01:43:28;;;;;;;;;5.00;5.00;;;;;6.58;52.92;100712.41;6167522;23;45795;-83
2022/04/02 01:45:56;;;;;;;;;5.00;5.00;;;;;6.61;51.25;100717.75;6167597;23;45324;-82
2022/04/02 01:48:21;;;;;;;;;7.33;6.00;;;;;6.51;53.03;100718.34;6140847;23;44818;-82
2022/04/02 01:50:47;;;;;;;;;9.67;5.33;;;;;6.50;54.13;100713.00;6166053;23;45395;-83
2022/04/02 01:53:14;;;;;;;;;5.00;4.33;;;;;6.71;54.03;100734.78;6137839;23;45229;-83
2022/04/02 01:55:39;;;;;;;;;5.33;4.33;;;;;6.49;54.02;100716.50;6164058;23;45412;-82
2022/04/02 01:58:05;;;;;;;;;9.00;8.33;;;;;6.48;54.31;100715.59;6164554;23;45323;-83
2022/04/02 02:00:31;;;;;;;;;6.00;6.00;;;;;6.46;54.41;100717.28;6163576;23;47534;-82
2022/04/02 02:02:56;;;;;;;;;7.67;5.33;;;;;6.40;54.35;100723.31;6139541;23;45426;-83
2022/04/02 02:05:23;;;;;;;;;5.00;5.00;;;;;6.40;54.46;100719.75;6164656;23;45201;-83
2022/04/02 02:07:49;;;;;;;;;6.33;4.33;;;;;6.45;53.79;100736.66;6140570;23;45617;-82
2022/04/02 02:10:52;;;;;;;;;5.00;5.00;;;;;6.69;54.05;100730.31;6163607;23;47315;-82
2022/04/02 02:13:18;;;;;;;;;5.00;2.67;;;;;6.34;54.44;100733.69;6167260;23;44779;-83
2022/04/02 02:15:43;;;;;;;;;5.67;5.67;;;;;6.27;54.68;100739.59;6165745;23;44739;-82
2022/04/02 02:18:09;;;;;;;;;7.33;7.33;;;;;6.29;54.40;100731.75;6167745;23;45681;-83
2022/04/02 02:20:35;;;;;;;;;10.33;5.67;;;;;6.21;54.80;100742.94;6140366;23;47825;-84
2022/04/02 02:23:53;;;;;;;;;5.00;5.00;;;;;6.49;54.23;100733.25;6164707;23;45557;-84
2022/04/02 02:26:19;;;;;;;;;4.67;4.67;;;;;6.04;53.98;100728.31;6190669;23;45397;-84
2022/04/02 02:28:45;;;;;;;;;4.00;4.00;;;;;6.08;55.55;100743.41;6139647;23;45478;-84
2022/04/02 02:31:10;;;;;;;;;6.00;5.33;;;;;6.08;55.64;100740.78;6163320;23;47260;-83
2022/04/02 02:36:20;;;;;;;;;3.67;2.00;;;;;6.10;55.34;100740.81;6165292;23;45353;-83
2022/04/02 02:38:46;;;;;;;;;5.00;5.00;;;;;6.15;55.87;100748.03;6164637;23;45357;-83
2022/04/02 02:41:12;;;;;;;;;10.33;7.00;;;;;5.97;55.00;100735.13;6162427;23;47657;-81
2022/04/02 02:43:38;;;;;;;;;5.00;5.00;;;;;6.00;55.54;100750.19;6138446;23;45416;-83
2022/04/02 02:46:05;;;;;;;;;5.00;4.33;;;;;6.04;55.97;100752.09;6137552;23;45706;-85
2022/04/02 02:49:17;;;;;;;;;5.00;5.00;;;;;6.27;53.80;100762.50;6162737;23;45555;-83
2022/04/02 02:51:43;;;;;;;;;2.67;2.67;;;;;5.94;56.06;100761.41;6187507;23;45435;-82
2022/04/02 02:54:08;;;;;;;;;4.67;4.67;;;;;5.94;56.14;100757.88;6137667;23;44886;-83
2022/04/02 02:56:33;;;;;;;;;6.33;6.33;;;;;5.82;55.77;100748.69;6162959;23;45487;-83
2022/04/02 02:58:59;;;;;;;;;6.00;5.33;;;;;5.84;55.68;100761.94;6158785;23;45412;-83
2022/04/02 03:04:46;;;;;;;;;9.00;6.33;;;;;5.82;56.61;100756.63;6163532;23;45325;-83
2022/04/02 03:07:12;;;;;;;;;5.33;4.67;;;;;5.86;56.87;100764.63;6164837;23;45333;-83
2022/04/02 03:09:37;;;;;;;;;3.33;2.00;;;;;5.85;56.73;100769.00;6136765;23;45332;-83
2022/04/02 03:12:03;;;;;;;;;4.00;4.00;;;;;5.87;55.67;100761.16;6159570;23;47005;-82
2022/04/02 03:14:30;;;;;;;;;2.00;1.00;;;;;5.94;56.11;100761.41;6161105;23;45725;-83
2022/04/02 03:16:55;;;;;;;;;5.67;5.67;;;;;5.80;56.20;100774.13;6162257;23;45348;-84
2022/04/02 03:19:21;;;;;;;;;2.00;2.00;;;;;5.79;56.26;100769.69;6162355;23;45392;-82
2022/04/02 03:21:46;;;;;;;;;4.67;4.67;;;;;5.77;56.38;100771.38;6133766;23;47119;-82
2022/04/02 03:24:11;;;;;;;;;3.33;3.33;;;;;5.78;56.11;100767.03;6157706;23;45444;-82
2022/04/02 03:29:59;;;;;;;;;5.00;4.00;;;;;5.67;56.77;100779.84;6160999;23;45336;-83
2022/04/02 03:32:25;;;;;;;;;5.33;5.33;;;;;5.61;56.12;100774.34;6160671;23;45648;-82
2022/04/02 03:34:51;;;;;;;;;6.33;6.00;;;;;5.67;56.73;100785.09;6135634;23;45490;-84
2022/04/02 03:37:19;;;;;;;;;7.00;7.00;;;;;5.85;56.80;100783.97;6167516;23;45609;-83
2022/04/02 03:43:07;;;;;;;;;4.00;4.00;;;;;5.61;55.81;100783.19;6166425;23;45417;-83
2022/04/02 03:45:32;;;;;;;;;8.00;8.00;;;;;5.58;56.84;100783.06;6139788;23;45339;-82
2022/04/02 03:47:57;;;;;;;;;6.33;6.33;;;;;5.60;56.71;100785.75;6140362;23;45650;-82
2022/04/02 03:50:23;;;;;;;;;7.00;7.00;;;;;5.60;56.80;100788.41;6141248;23;45315;-82
2022/04/02 03:52:48;;;;;;;;;5.00;5.00;;;;;5.54;56.42;100783.78;6135382;23;46858;-83
2022/04/02 03:55:14;;;;;;;;;4.00;1.67;;;;;5.49;57.11;100787.09;6163808;23;45557;-83
2022/04/02 03:57:39;;;;;;;;;8.00;5.67;;;;;5.51;56.15;100782.78;6135822;23;45446;-82
2022/04/02 04:00:08;;;;;;;;;7.67;6.00;;;;;5.64;56.95;100792.03;6136268;23;45514;-82
2022/04/02 04:02:34;;;;;;;;;11.33;9.00;;;;;5.41;56.97;100777.19;6161358;23;47847;-82
2022/04/02 04:05:00;;;;;;;;;5.67;5.67;;;;;5.45;57.24;100786.09;6160970;23;45336;-83
2022/04/02 04:07:26;;;;;;;;;7.33;4.67;;;;;5.54;56.87;100794.34;6159579;23;45423;-82
2022/04/02 04:09:51;;;;;;;;;8.00;5.00;;;;;5.50;57.66;100781.00;6159075;23;45916;-83
2022/04/02 04:12:17;;;;;;;;;7.00;6.67;;;;;5.47;57.50;100783.53;6158491;23;46780;-82
2022/04/02 04:14:44;;;;;;;;;5.00;4.33;;;;;5.53;57.44;100776.72;6134689;23;45509;-82
2022/04/02 04:17:11;;;;;;;;;5.00;5.00;;;;;5.51;57.12;100790.69;6162020;23;45498;-83
2022/04/02 04:19:36;;;;;;;;;7.33;7.00;;;;;5.49;57.27;100800.31;6135542;23;45289;-83
2022/04/02 04:22:03;;;;;;;;;10.33;7.00;;;;;5.46;56.75;100797.56;6160777;23;47913;-83
2022/04/02 04:24:30;;;;;;;;;7.67;7.67;;;;;5.38;56.29;100806.09;6164948;23;45170;-83
2022/04/02 04:26:57;;;;;;;;;4.00;3.33;;;;;5.49;57.69;100797.66;6164828;23;45367;-83
2022/04/02 04:29:23;;;;;;;;;8.00;6.67;;;;;5.36;58.25;100815.69;6164186;23;45380;-83
2022/04/02 04:31:48;;;;;;;;;6.00;6.00;;;;;5.36;57.60;100807.78;6127940;23;47020;-83
2022/04/02 04:34:15;;;;;;;;;8.00;8.00;;;;;5.33;57.70;100810.31;6133251;23;45449;-83
2022/04/02 04:36:40;;;;;;;;;11.00;8.33;;;;;5.31;57.52;100805.81;6132312;23;45859;-83
2022/04/02 04:39:06;;;;;;;;;7.00;7.00;;;;;5.35;57.80;100819.19;6133956;23;45342;-82
2022/04/02 04:41:32;;;;;;;;;7.67;7.67;;;;;5.36;57.23;100815.69;6154640;23;46917;-82
2022/04/02 04:43:57;;;;;;;;;8.00;6.00;;;;;5.35;57.05;100818.25;6133033;23;45345;-82
2022/04/02 04:46:22;;;;;;;;;4.33;2.00;;;;;5.30;57.34;100818.09;6158228;23;45347;-82
2022/04/02 04:48:48;;;;;;;;;10.33;8.00;;;;;5.30;56.93;100814.56;6132267;23;45674;-82
2022/04/02 04:51:14;;;;;;;;;9.00;7.67;;;;;5.36;57.19;100834.16;6135830;23;46489;-82
2022/04/02 04:53:40;;;;;;;;;5.00;5.00;;;;;5.32;57.70;100829.59;6134165;23;45373;-83
2022/04/02 04:56:06;;;;;;;;;5.00;5.00;;;;;5.35;58.24;100832.38;6137506;23;45346;-83
2022/04/02 04:58:32;;;;;;;;;11.00;9.00;;;;;5.30;57.73;100836.56;6184446;23;45492;-83
2022/04/02 05:00:59;;;;;;;;;8.00;8.00;;;;;5.43;57.43;100834.38;6184143;23;47141;-83
2022/04/02 05:03:25;;;;;;;;;7.67;7.67;;;;;5.33;58.22;100830.50;6160603;22;45504;-83
2022/04/02 05:05:54;;;;;;;;;6.33;6.33;;;;;5.55;58.14;100840.97;6132105;23;45319;-82
2022/04/02 05:08:21;;;;;;;;;4.00;4.00;;;;;5.41;57.53;100845.78;6132391;23;45359;-83
2022/04/02 05:10:47;;;;;;;;;9.00;9.00;;;;;5.38;57.33;100845.66;6153743;23;47286;-83
2022/04/02 05:13:50;;;;;;;;;8.67;7.00;;;;;5.63;56.51;100853.56;6131626;23;45347;-83
2022/04/02 05:16:15;;;;;;;;;8.00;8.00;;;;;5.27;58.00;100862.84;6130514;23;44794;-83
2022/04/02 05:18:42;;;;;;;;;9.00;7.33;;;;;5.33;58.02;100860.44;6179029;23;45842;-83
2022/04/02 05:21:07;;;;;;;;;9.00;7.00;;;;;5.30;57.34;100870.84;6153867;23;47514;-83
2022/04/02 05:23:33;;;;;;;;;4.00;4.00;;;;;5.32;57.40;100868.28;6129583;23;45689;-83
2022/04/02 05:25:59;;;;;;;;;11.00;11.00;;;;;5.46;57.69;100868.78;6133050;23;45354;-82
2022/04/02 05:28:25;;;;;;;;;8.00;7.00;;;;;5.31;57.81;100863.81;6131297;23;45501;-82
2022/04/02 05:30:51;;;;;;;;;5.00;5.00;;;;;5.33;57.32;100876.25;6132155;23;45428;-82
2022/04/02 05:33:17;;;;;;;;;8.00;7.00;;;;;5.27;57.36;100878.66;6157329;23;44884;-83
2022/04/02 05:35:42;;;;;;;;;7.00;7.00;;;;;5.29;57.17;100883.97;6160236;23;45335;-83
2022/04/02 05:38:09;;;;;;;;;7.00;7.00;;;;;5.49;57.50;100882.97;6134642;23;45224;-83
2022/04/02 05:40:38;;;;;;;;;16.00;9.67;;;;;5.42;57.37;100878.31;6160171;23;46947;-83
2022/04/02 05:43:04;;;;;;;;;11.00;7.00;;;;;5.23;57.75;100866.16;6161162;23;45526;-83
2022/04/02 05:45:29;;;;;;;;;8.00;5.67;;;;;5.25;57.56;100882.97;6161365;23;45480;-83
2022/04/02 05:47:55;;;;;;;;;9.00;8.33;;;;;5.27;56.71;100889.19;6160586;23;45376;-83
2022/04/02 05:50:21;;;;;;;;;11.67;7.67;;;;;5.35;57.98;100882.47;6137748;23;46949;-82
2022/04/02 05:52:49;;;;;;;;;5.67;5.67;;;;;5.50;56.91;100886.53;6161834;23;45457;-83
2022/04/02 05:55:17;;;;;;;;;7.00;5.67;;;;;5.54;56.40;100889.31;6163437;23;45383;-83
2022/04/02 05:57:45;;;;;;;;;8.00;4.67;;;;;5.53;56.94;100889.25;6162177;23;44852;-82
2022/04/02 06:00:13;;;;;;;;;2.00;2.00;;;;;5.51;56.81;100893.56;6163714;23;46761;-82
2022/04/02 06:02:39;;;;;;;;;7.67;7.67;;;;;5.52;57.10;100898.03;6136628;23;45573;-82
2022/04/02 06:05:07;;;;;;;;;7.67;7.00;;;;;5.62;57.20;100902.78;6164814;23;45353;-83
2022/04/02 06:07:33;;;;;;;;;5.00;5.00;;;;;5.60;56.69;100907.13;6164071;23;45381;-82
2022/04/02 06:10:49;;;;;;;;;5.33;5.33;;;;;5.92;55.68;100910.91;6162185;23;45813;-82
2022/04/02 06:13:14;;;;;;;;;5.00;5.00;;;;;5.60;56.87;100912.41;6187885;23;45378;-83
2022/04/02 06:15:40;;;;;;;;;7.67;7.67;;;;;5.66;57.34;100909.97;6164217;23;45331;-83
2022/04/02 06:18:07;;;;;;;;;5.00;5.00;;;;;5.79;57.31;100912.19;6137252;23;45708;-83
2022/04/02 06:20:33;;;;;;;;;2.00;2.00;;;;;5.89;56.81;100907.28;6164023;23;45375;-83
2022/04/02 06:22:59;;;;;;;;;8.00;8.00;;;;;5.93;55.89;100917.09;6135965;23;45340;-84
2022/04/02 06:25:33;;;;;;;;;8.33;8.33;;;;;5.89;56.45;100912.53;6162636;23;45300;-84
2022/04/02 06:27:58;;;;;;;;;8.00;8.00;;;;;5.98;56.87;100918.19;6161753;23;45354;-84
2022/04/02 06:30:24;;;;;;;;;5.00;5.00;;;;;6.03;54.78;100911.31;6137888;23;47577;-83
2022/04/02 06:32:56;;;;;;;;;5.67;5.67;;;;;6.07;56.39;100922.91;6132161;23;45608;-83
2022/04/02 06:35:21;;;;;;;;;8.00;8.00;;;;;6.15;56.40;100917.03;6158128;23;45396;-83
2022/04/02 06:37:48;;;;;;;;;8.00;8.00;;;;;6.33;56.69;100926.44;6133126;23;45261;-83
2022/04/02 06:40:16;;;;;;;;;8.33;8.33;;;;;6.47;56.36;100919.00;6157808;23;46814;-85
2022/04/02 06:42:42;;;;;;;;;11.00;8.00;;;;;6.38;56.40;100914.28;6157871;23;45465;-82
2022/04/02 06:45:08;;;;;;;;;8.00;6.67;;;;;6.57;56.26;100943.13;6135082;23;45403;-85
2022/04/02 06:47:34;;;;;;;;;3.33;3.33;;;;;6.50;55.26;100933.19;6133354;23;45243;-84
2022/04/02 06:50:04;;;;;;;;;12.33;7.33;;;;;6.75;55.49;100936.66;6133683;23;48423;-83
2022/04/02 06:52:32;;;;;;;;;9.33;9.33;;;;;6.74;55.42;100932.19;6136887;23;45303;-85
2022/04/02 06:54:57;;;;;;;;;8.33;7.33;;;;;6.61;55.09;100939.72;6135193;23;45434;-84
2022/04/02 06:57:23;;;;;;;;;8.00;8.00;;;;;6.79;54.98;100933.25;6135251;23;45352;-83
2022/04/02 06:59:49;;;;;;;;;6.00;6.00;;;;;6.79;56.08;100944.72;6137132;23;46308;-82
2022/04/02 07:02:21;;;;;;;;;8.67;8.67;;;;;6.95;54.89;100947.88;6184146;23;45646;-82
2022/04/02 07:04:47;;;;;;;;;9.33;6.67;;;;;7.06;55.31;100956.16;6136692;23;44842;-83
2022/04/02 07:07:13;;;;;;;;;9.33;8.67;;;;;7.14;54.17;100952.00;6139029;23;45306;-84
2022/04/02 07:09:39;;;;;;;;;7.33;7.33;;;;;7.14;55.02;100949.34;6136995;23;45458;-83
2022/04/02 07:15:27;;;;;;;;;6.67;5.00;;;;;7.46;55.49;100971.50;6136579;23;45566;-84
2022/04/02 07:17:52;;;;;;;;;9.33;8.33;;;;;7.38;54.93;100968.63;6133938;23;45755;-82
2022/04/02 07:20:18;;;;;;;;;8.00;5.33;;;;;7.56;54.81;100980.63;6133710;23;48120;-83
2022/04/02 07:22:44;;;;;;;;;6.67;5.33;;;;;7.59;54.87;100970.13;6136863;23;45958;-83
2022/04/02 07:25:12;;;;;;;;;10.33;5.33;;;;;7.73;54.42;100976.72;6136225;23;44762;-83
2022/04/02 07:27:39;;;;;;;;;6.00;6.00;;;;;7.79;54.86;100954.81;6132748;23;45324;-84
2022/04/02 07:30:06;;;;;;;;;8.67;6.00;;;;;7.70;51.82;100960.75;6134236;23;45567;-82
2022/04/02 07:32:38;;;;;;;;;8.67;8.00;;;;;7.94;52.76;100983.50;6148005;23;45496;-84
2022/04/02 07:35:04;;;;;;;;;5.00;5.00;;;;;7.64;53.82;100976.44;6164938;23;45414;-83
2022/04/02 07:41:06;;;;;;;;;5.00;5.00;;;;;8.12;52.62;100975.16;6167657;23;45347;-84
2022/04/02 07:43:49;;;;;;;;;9.00;8.00;;;;;8.19;53.20;100977.13;6160079;23;45392;-83
2022/04/02 07:46:18;;;;;;;;;5.67;5.67;;;;;8.10;52.36;100964.53;6164973;23;45515;-83
2022/04/02 07:48:48;;;;;;;;;9.00;5.00;;;;;8.15;51.07;100986.75;6167481;23;45680;-83
2022/04/02 07:51:18;;;;;;;;;6.00;6.00;;;;;8.29;52.31;100986.22;6140767;23;47500;-84
2022/04/02 07:53:49;;;;;;;;;9.00;8.33;;;;;8.39;53.41;100972.38;6141592;23;45419;-84
2022/04/02 07:56:22;;;;;;;;;9.00;8.00;;;;;8.56;52.31;100980.78;6142157;23;45327;-84
2022/04/02 07:58:52;;;;;;;;;6.00;5.00;;;;;8.49;51.11;100974.44;6165909;23;45575;-84
2022/04/02 08:01:19;;;;;;;;;8.00;8.00;;;;;8.28;48.90;100981.78;6140057;23;46695;-82
2022/04/02 08:03:46;;;;;;;;;6.33;5.33;;;;;8.31;48.31;100989.81;6165448;23;45351;-83
2022/04/02 08:06:16;;;;;;;;;5.00;4.67;;;;;8.23;48.87;100981.66;6165632;23;44829;-83
2022/04/02 08:08:42;;;;;;;;;5.00;5.00;;;;;8.24;49.49;100969.28;6164171;23;45453;-83
2022/04/02 08:11:09;;;;;;;;;7.33;5.33;;;;;8.32;47.34;100973.03;6163292;23;47181;-84
2022/04/02 08:13:37;;;;;;;;;4.67;3.33;;;;;8.47;48.17;100993.81;6140820;23;45392;-83
2022/04/02 08:16:03;;;;;;;;;3.67;3.67;;;;;8.35;46.76;100994.34;6139014;23;45352;-83
2022/04/02 08:18:29;;;;;;;;;6.00;5.00;;;;;8.34;46.82;100995.19;6165770;23;45707;-83
2022/04/02 08:20:55;;;;;;;;;5.00;5.00;;;;;8.31;45.40;100998.66;6165604;23;46090;-84
2022/04/02 08:23:21;;;;;;;;;6.67;5.00;;;;;8.41;47.02;100999.84;6165349;23;45359;-83
2022/04/02 08:26:11;;;;;;;;;4.00;4.00;;;;;8.51;44.40;101017.78;6166152;23;45443;-83
2022/04/02 08:29:14;;;;;;;;;4.67;4.67;;;;;8.74;44.79;101004.22;6164121;23;45538;-83
2022/04/02 08:31:58;;;;;;;;;5.00;5.00;;;;;8.78;45.42;101016.72;6163219;23;45102;-83
2022/04/02 08:37:56;;;;;;;;;5.00;5.00;;;;;9.02;46.66;100996.09;6166198;23;45424;-82
2022/04/02 08:40:40;;;;;;;;;5.00;5.00;;;;;8.89;45.53;101001.97;6167948;23;45478;-83
2022/04/02 08:43:43;;;;;;;;;3.00;3.00;;;;;9.29;44.10;101010.91;6189647;23;48051;-82
2022/04/02 08:46:51;;;;;;;;;5.00;5.00;;;;;9.34;45.02;101006.59;6190122;23;45275;-84
2022/04/02 08:49:38;;;;;;;;;2.00;2.00;;;;;9.39;43.05;101018.22;6110935;23;45690;-84
2022/04/02 08:52:15;;;;;;;;;1.00;1.00;;;;;9.38;43.48;101008.47;6134719;23;45408;-84
2022/04/02 08:54:46;;;;;;;;;4.00;4.00;;;;;9.41;44.23;101027.13;6107672;23;47570;-84
2022/04/02 08:57:31;;;;;;;;;3.33;3.33;;;;;9.45;42.59;101012.13;6133072;23;45429;-84
2022/04/02 09:00:53;;;;;;;;;3.33;3.33;;;;;9.46;42.67;101018.38;6107651;23;44825;-84
2022/04/02 09:03:56;;;;;;;;;5.00;5.00;;;;;9.36;42.96;101015.50;6132793;23;45419;-83
2022/04/02 09:06:58;;;;;;;;;2.00;2.00;;;;;9.31;42.33;101014.50;6132827;23;46121;-82
2022/04/02 09:09:43;;;;;;;;;4.67;4.67;;;;;9.09;42.97;101026.34;6108894;23;45497;-83
2022/04/02 09:12:27;;;;;;;;;5.00;5.00;;;;;9.30;40.29;101025.97;6132320;23;45387;-83
2022/04/02 09:15:06;;;;;;;;;2.33;2.33;;;;;8.97;41.90;101040.22;6132928;23;45420;-83
2022/04/02 09:17:56;;;;;;;;;5.00;5.00;;;;;9.20;40.89;101023.94;6131588;23;45469;-84
2022/04/02 09:20:35;;;;;;;;;3.33;3.33;;;;;9.01;42.30;101010.25;6132653;23;44803;-83
2022/04/02 09:23:15;;;;;;;;;2.33;2.33;;;;;9.05;42.15;101023.56;6104481;23;45328;-83
2022/04/02 09:26:10;;;;;;;;;3.33;3.33;;;;;8.89;39.78;101025.84;6120835;23;45458;-83
2022/04/02 09:28:43;;;;;;;;;3.00;3.00;;;;;9.10;43.01;101008.66;6163726;23;45349;-83
2022/04/02 09:31:48;;;;;;;;;2.00;2.00;;;;;9.26;41.83;101020.56;6162185;23;45736;-83
2022/04/02 09:34:35;;;;;;;;;5.00;5.00;;;;;9.11;43.46;101029.94;6106562;23;45772;-83
2022/04/02 09:37:15;;;;;;;;;6.00;6.00;;;;;9.36;41.88;101023.44;6130493;23;45418;-83
2022/04/02 09:40:06;;;;;;;;;2.67;2.67;;;;;9.53;41.05;101023.88;6106106;23;48053;-84
2022/04/02 09:42:43;;;;;;;;;6.67;6.00;;;;;9.54;40.11;101038.03;6131102;23;45557;-83
2022/04/02 09:45:17;;;;;;;;;3.00;3.00;;;;;9.36;40.07;101027.88;6130529;23;45355;-83
2022/04/02 09:47:51;;;;;;;;;3.00;3.00;;;;;9.46;40.47;101040.50;6130248;23;45398;-83
2022/04/02 09:50:21;;;;;;;;;5.00;5.00;;;;;9.19;39.94;101023.06;6105328;23;46243;-83
2022/04/02 09:53:14;;;;;;;;;4.67;4.67;;;;;9.28;37.66;101040.06;6129383;23;45390;-83
2022/04/02 09:55:51;;;;;;;;;2.00;2.00;;;;;9.50;40.72;101030.84;6131086;23;45670;-84
2022/04/02 09:59:21;;;;;;;;;4.67;4.67;;;;;9.86;39.49;101029.88;6105509;23;45408;-84
2022/04/02 10:01:47;;;;;;;;;6.00;5.00;;;;;9.95;40.28;101028.31;6044226;23;45459;-84
2022/04/02 10:04:21;;;;;;;;;5.67;5.67;;;;;10.45;39.98;101027.56;6041535;23;45715;-83
2022/04/02 10:06:51;;;;;;;;;5.67;5.00;;;;;10.40;40.52;101022.19;6045914;23;45936;-84
2022/04/02 10:09:20;;;;;;;;;5.00;2.00;;;;;10.28;40.17;101028.97;6049181;23;45297;-83
2022/04/02 10:11:59;;;;;;;;;6.00;3.00;;;;;10.31;37.48;101027.31;6071625;23;47015;-84
2022/04/02 10:14:28;;;;;;;;;2.67;2.67;;;;;10.14;37.98;101034.91;6077355;23;45361;-82
2022/04/02 10:17:06;;;;;;;;;3.00;3.00;;;;;10.16;37.59;101083.69;6078215;23;44752;-83
2022/04/02 10:19:35;;;;;;;;;2.00;1.67;;;;;9.99;36.00;101037.25;6102482;23;44820;-83
2022/04/02 10:22:10;;;;;;;;;5.00;5.00;;;;;9.89;37.11;101024.63;6077043;23;48168;-83
2022/04/02 10:24:49;;;;;;;;;2.67;2.67;;;;;9.92;34.74;101060.13;6076906;23;45439;-83
2022/04/02 10:27:31;;;;;;;;;5.67;5.67;;;;;10.16;37.03;101030.53;6078384;23;45260;-83
2022/04/02 10:29:59;;;;;;;;;4.33;2.00;;;;;10.39;35.88;101048.72;6075950;23;45310;-83
2022/04/02 10:35:49;;;;;;;;;3.00;3.00;;;;;10.59;36.55;101035.81;6104392;23;45585;-83
2022/04/02 10:38:36;;;;;;;;;3.00;3.00;;;;;10.71;36.15;101017.41;6134221;23;44744;-83
2022/04/02 10:41:04;;;;;;;;;2.00;2.00;;;;;10.68;37.60;101029.75;6136622;23;45427;-82
2022/04/02 10:43:50;;;;;;;;;2.67;2.67;;;;;10.55;35.63;101044.59;6159916;23;46668;-83
2022/04/02 10:46:20;;;;;;;;;4.33;2.33;;;;;10.26;34.85;101020.97;6136677;23;45690;-82
2022/04/02 10:49:05;;;;;;;;;2.33;2.33;;;;;10.46;36.77;101029.34;6136996;23;45678;-83
2022/04/02 10:51:32;;;;;;;;;4.33;4.33;;;;;10.09;36.44;101017.97;6135639;23;45711;-83
2022/04/02 10:54:03;;;;;;;;;2.00;2.00;;;;;10.38;36.45;101031.88;6156864;23;45690;-83
2022/04/02 10:56:33;;;;;;;;;2.00;2.00;;;;;10.48;33.34;101022.28;6132520;23;45768;-84
2022/04/02 10:59:00;;;;;;;;;4.33;4.33;;;;;10.44;34.79;101014.25;6156293;23;45810;-84
2022/04/02 11:01:26;;;;;;;;;2.67;2.67;;;;;10.45;32.92;101026.69;6131376;23;45486;-83
2022/04/02 11:03:55;;;;;;;;;1.67;1.67;;;;;10.77;34.64;100998.00;6133438;23;45366;-84
2022/04/02 11:06:43;;;;;;;;;4.00;2.67;;;;;11.15;34.37;101042.97;6133281;23;45343;-83
2022/04/02 11:09:30;;;;;;;;;5.00;5.00;;;;;11.33;34.11;101013.09;6134846;23;45438;-83
2022/04/02 11:12:14;;;;;;;;;5.00;5.00;;;;;11.01;34.13;101003.75;6136822;23;45361;-83
2022/04/02 11:14:52;;;;;;;;;4.33;4.33;;;;;10.71;34.13;101036.03;6159034;23;47448;-82
2022/04/02 11:17:33;;;;;;;;;5.00;3.67;;;;;10.71;34.83;101027.16;6135789;23;45281;-82
2022/04/02 11:20:08;;;;;;;;;5.00;5.00;;;;;10.54;34.48;101016.19;6136274;23;45732;-83
2022/04/02 11:22:48;;;;;;;;;5.00;5.00;;;;;10.46;34.73;101008.06;6157147;23;45458;-83
2022/04/02 11:25:24;;;;;;;;;4.33;3.00;;;;;10.31;32.66;101002.47;6132607;23;45835;-83
2022/04/02 11:27:54;;;;;;;;;3.00;3.00;;;;;10.24;33.95;101027.09;6133203;23;45130;-83
2022/04/02 11:30:21;;;;;;;;;2.33;2.33;;;;;10.29;34.70;101020.13;6134018;23;45421;-83
2022/04/02 11:32:48;;;;;;;;;5.33;3.67;;;;;10.45;35.26;101013.38;6144066;23;45264;-83
2022/04/02 11:35:22;;;;;;;;;5.67;5.67;;;;;10.83;34.19;101019.41;6136087;23;45838;-82
2022/04/02 11:38:03;;;;;;;;;4.33;4.33;;;;;11.05;34.69;101009.09;6161158;23;45690;-83
2022/04/02 11:40:29;;;;;;;;;3.67;3.00;;;;;11.08;34.07;100994.09;6162585;23;45389;-83
2022/04/02 11:43:02;;;;;;;;;5.00;5.00;;;;;11.25;32.67;101006.75;6160809;23;44835;-83
2022/04/02 11:45:29;;;;;;;;;5.00;5.00;;;;;11.02;32.67;101018.81;6136995;23;48226;-83
2022/04/02 11:48:10;;;;;;;;;3.67;3.67;;;;;11.10;32.06;101039.38;6162052;23;45382;-82
2022/04/02 11:50:40;;;;;;;;;3.00;3.00;;;;;11.01;32.82;101002.84;6162346;23;45378;-83
2022/04/02 11:53:06;;;;;;;;;1.00;1.00;;;;;10.98;31.58;101037.38;6136459;23;45371;-83
2022/04/02 11:55:36;;;;;;;;;5.00;5.00;;;;;11.43;33.74;101022.13;6161345;23;45272;-83
2022/04/02 11:58:48;;;;;;;;;5.00;1.00;;;;;11.75;32.63;101012.81;6135954;23;45477;-83
2022/04/02 12:01:14;;;;;;;;;3.00;3.00;;;;;11.69;30.75;101015.41;6186636;23;44725;-83
2022/04/02 12:03:41;;;;;;;;;7.67;6.67;;;;;11.60;32.51;101037.50;6162952;23;45337;-83
2022/04/02 12:06:11;;;;;;;;;5.00;3.67;;;;;11.65;32.26;101016.22;6162824;23;45449;-83
2022/04/02 12:08:40;;;;;;;;;5.00;5.00;;;;;11.50;32.31;101046.22;6159818;23;45349;-83
2022/04/02 12:11:09;;;;;;;;;5.00;5.00;;;;;11.20;30.77;101018.22;6161606;23;45379;-83
2022/04/02 12:13:35;;;;;;;;;6.00;5.00;;;;;11.00;31.95;101020.56;6134597;23;45354;-83
2022/04/02 12:16:13;;;;;;;;;5.00;3.00;;;;;11.09;32.84;101016.25;6134537;23;47301;-83
2022/04/02 12:22:01;;;;;;;;;3.00;3.00;;;;;11.15;32.42;101027.00;6162468;23;45452;-83
2022/04/02 12:24:38;;;;;;;;;5.00;3.67;;;;;11.33;30.73;101027.34;6136555;23;45683;-83